Jasper, MI

5:38 PM EST on February 24, 2017 (GMT -0500)
West Toledo | | Change Station

Elev 660 ft 41.70 °N, 83.61 °W | Updated 3 minutes ago

Partly Cloudy
Partly Cloudy
68.9 °F
Feels Like 68.9 °F
N
0.0
Wind Variable Wind from WSW
Gusts 0.0 mph

Today
High -- | Low -- °F
--% Chance of Precip.
Yesterday
High -- | Low -- °F
Precip. -- in
Pressure 29.49 in
Visibility 10.0 miles
Clouds Clear
Dew Point 54.9 °F
Humidity 61%
Rainfall 0.22 in
Snow Depth Not available.
7:18 AM 6:20 PM
Waning Crescent, 3% visible
METAR KADG 242153Z AUTO 26004KT 10SM CLR 17/13 A2948 RMK AO2 LTG DSNT SE SLP985 T01720133
Pressure 29.49 in
Visibility 10.0 miles
Clouds Clear
Dew Point 54.9 °F
Humidity 61%
Rainfall 0.22 in
Snow Depth Not available.
7:18 AM 6:20 PM
Waning Crescent, 3% visible
METAR KADG 242153Z AUTO 26004KT 10SM CLR 17/13 A2948 RMK AO2 LTG DSNT SE SLP985 T01720133

Get Your Daily Forecast Email!

Thanks for signing up!

Be on the lookout for a verification email in your inbox.

You'll start receiving the daily forecast at 8 AM.

×

10-Day Weather Forecast

Almanac

Astronomy

Feb. 24, 2017 Rise Set
Actual Time
Civil Twilight
Nautical Twilight
Astronomical Twilight
Moon
Length of Visible Light
Length of Day
Tomorrow will be .
, % of the Moon is Illuminated

Today's Extremes

State Highs State Lows

Community

WunderPhotos

Upload Photos

1,962,540 photos uploaded!

WunderBlog® & News

Nearby

Air Quality

  Air Quality AQ Index Pollutant
Not available.

Snow Depth

Station Depth Elevation

Earthquake Activity

City Distance Mag. Time & Date
Minimum magnitude displayed is 2.5.

Coastal Water Temperatures

Place Temperature

Stations

Nearby Weather Stations

Station Location Temp. Windchill Dew Point Humidity Wind Precip. Elev Updated Type
                   

Watches & Warnings

Severe Thunderstorm Watch
Issued: 5:24 PM EST Feb. 24, 2017 – National Weather Service

Severe Thunderstorm Watch 37 remains in effect until 1000 PM EST

Mi
. Michigan counties included are

Branch Calhoun Eaton
Genesee Hillsdale Ingham
Jackson Kalamazoo Lapeer
Lenawee Livingston Macomb
Monroe Oakland St. Clair
St. Joseph Sanilac Shiawassee
Washtenaw Wayne